createdAt,value
2024-03-04T00:00:37.992Z,7
2024-03-04T00:01:38.421Z,7
2024-03-04T00:02:38.873Z,7
2024-03-04T00:03:39.159Z,7
2024-03-04T00:04:39.390Z,7
2024-03-04T00:05:39.609Z,7
2024-03-04T00:06:39.816Z,7
2024-03-04T00:07:40.095Z,7
2024-03-04T00:08:40.353Z,7
2024-03-04T00:09:40.542Z,7
2024-03-04T00:10:40.938Z,7
2024-03-04T00:11:41.289Z,7
2024-03-04T00:12:41.436Z,7
2024-03-04T00:13:41.697Z,7
2024-03-04T00:14:41.915Z,7
2024-03-04T00:15:42.060Z,7
2024-03-04T00:16:42.325Z,7
2024-03-04T00:17:42.773Z,7
2024-03-04T00:18:43.154Z,7
2024-03-04T00:19:43.506Z,7
2024-03-04T00:20:43.662Z,7
2024-03-04T00:21:43.820Z,7
2024-03-04T00:22:44.070Z,7
2024-03-04T00:23:44.342Z,7
2024-03-04T00:24:44.501Z,7
2024-03-04T00:25:44.865Z,7
2024-03-04T00:26:45.156Z,7.1
2024-03-04T00:27:45.349Z,7.1
2024-03-04T00:28:45.535Z,7.1
2024-03-04T00:29:45.952Z,7.1
2024-03-04T00:30:46.118Z,7.1
2024-03-04T00:31:46.349Z,7.1
2024-03-04T00:32:46.566Z,7.1
2024-03-04T00:33:46.793Z,7.1
2024-03-04T00:34:46.941Z,7.1
2024-03-04T00:35:47.163Z,7.1
2024-03-04T00:36:47.316Z,7.1
2024-03-04T00:37:47.490Z,7.1
2024-03-04T00:38:47.664Z,7.1
2024-03-04T00:39:47.896Z,7.1
2024-03-04T00:40:48.048Z,7.1
2024-03-04T00:41:48.198Z,7.1
2024-03-04T00:42:48.371Z,7.1
2024-03-04T00:43:48.570Z,7.1
2024-03-04T00:44:48.735Z,7.1
2024-03-04T00:45:48.912Z,7.1
2024-03-04T00:46:49.108Z,7.1
2024-03-04T00:47:49.439Z,7.1
2024-03-04T00:48:49.666Z,7.1
2024-03-04T00:49:49.820Z,7.1
2024-03-04T00:50:49.981Z,7.1
2024-03-04T00:51:50.143Z,7.1
2024-03-04T00:52:50.335Z,7.1
2024-03-04T00:53:50.521Z,7.1
2024-03-04T00:54:50.665Z,7.1
2024-03-04T00:55:50.836Z,7.1
2024-03-04T00:56:51.035Z,7.1
2024-03-04T00:57:51.197Z,7.1
2024-03-04T00:58:51.369Z,7.1
2024-03-04T00:59:51.553Z,7.1
2024-03-04T01:00:51.763Z,7.1
2024-03-04T01:01:52.113Z,7.1
2024-03-04T01:02:52.378Z,7.1
2024-03-04T01:03:52.558Z,7.1
2024-03-04T01:04:52.838Z,7.1
2024-03-04T01:05:53.009Z,7.1
2024-03-04T01:06:53.852Z,7.1
2024-03-04T01:07:54.240Z,7.1
2024-03-04T01:08:54.424Z,7.1
2024-03-04T01:09:54.601Z,7.1
2024-03-04T01:10:54.977Z,7.1
2024-03-04T01:11:55.256Z,7.1
2024-03-04T01:12:55.438Z,7.1
2024-03-04T01:13:55.670Z,7.1
2024-03-04T01:14:55.863Z,7.1
2024-03-04T01:15:56.119Z,7.1
2024-03-04T01:16:56.374Z,7.1
2024-03-04T01:17:56.556Z,7.1
2024-03-04T01:18:56.875Z,7.1
2024-03-04T01:19:57.100Z,7.1
2024-03-04T01:20:57.273Z,7.1
2024-03-04T01:21:57.449Z,7.1
2024-03-04T01:22:57.652Z,7.1
2024-03-04T01:23:57.870Z,7.1
2024-03-04T01:24:58.281Z,7.1
2024-03-04T01:25:58.481Z,7.1
2024-03-04T01:26:58.661Z,7.2
2024-03-04T01:27:58.924Z,7.2
2024-03-04T01:28:59.207Z,7.2
2024-03-04T01:29:59.420Z,7.2
2024-03-04T01:30:59.644Z,7.2
2024-03-04T01:31:59.871Z,7.2
2024-03-04T01:33:00.104Z,7.2
2024-03-04T01:34:00.373Z,7.2
2024-03-04T01:35:00.639Z,7.2
2024-03-04T01:36:00.784Z,7.2
2024-03-04T01:37:00.982Z,7.2
2024-03-04T01:38:01.285Z,7.2
2024-03-04T01:39:01.433Z,7.2
2024-03-04T01:40:01.691Z,7.2
2024-03-04T01:41:01.990Z,7.2
2024-03-04T01:42:02.149Z,7.2
2024-03-04T01:43:02.461Z,7.2
2024-03-04T01:44:02.640Z,7.2
2024-03-04T01:45:02.871Z,7.2
2024-03-04T01:46:03.103Z,7.2
2024-03-04T01:47:03.384Z,7.2
2024-03-04T01:48:03.689Z,7.2
2024-03-04T01:49:04.146Z,7.2
2024-03-04T01:50:04.445Z,7.2
2024-03-04T01:51:04.624Z,7.2
2024-03-04T01:52:04.829Z,7.2
2024-03-04T01:53:05.119Z,7.2
2024-03-04T01:54:05.298Z,7.2
2024-03-04T01:55:05.507Z,7.2
2024-03-04T01:56:05.774Z,7.2
2024-03-04T01:57:05.917Z,7.2
2024-03-04T01:58:06.172Z,7.2
2024-03-04T01:59:06.698Z,7.2
2024-03-04T02:00:07.216Z,7.2
2024-03-04T02:01:07.556Z,7.2
2024-03-04T02:02:07.953Z,7.2
2024-03-04T02:03:08.181Z,7.2
2024-03-04T02:04:08.415Z,7.2
2024-03-04T02:05:08.692Z,7.2
2024-03-04T02:06:08.865Z,7.2
2024-03-04T02:07:09.045Z,7.2
2024-03-04T02:08:09.304Z,7.2
2024-03-04T02:09:09.485Z,7.2
2024-03-04T02:10:09.723Z,7.2
2024-03-04T02:11:10.103Z,7.2
2024-03-04T02:12:10.289Z,7.2
2024-03-04T02:13:10.499Z,7.2
2024-03-04T02:14:10.728Z,7.2
2024-03-04T02:15:10.887Z,7.2
2024-03-04T02:16:11.120Z,7.2
2024-03-04T02:17:11.402Z,7.2
2024-03-04T02:18:11.945Z,7.2
2024-03-04T02:19:12.353Z,7.2
2024-03-04T02:20:12.577Z,7.2
2024-03-04T02:21:12.749Z,7.2
2024-03-04T02:22:13.004Z,7.2
2024-03-04T02:23:14.083Z,7.2
2024-03-04T02:24:14.355Z,7.2
2024-03-04T02:25:14.538Z,7.2
2024-03-04T02:26:14.746Z,7.2
2024-03-04T02:27:14.905Z,6.8
2024-03-04T02:28:15.094Z,6.8
2024-03-04T02:29:15.281Z,6.8
2024-03-04T02:30:15.425Z,6.8
2024-03-04T02:31:15.637Z,6.8
2024-03-04T02:32:15.841Z,6.8
2024-03-04T02:33:15.997Z,6.8
2024-03-04T02:34:16.222Z,6.8
2024-03-04T02:35:16.420Z,6.8
2024-03-04T02:36:16.691Z,6.8
2024-03-04T02:37:16.932Z,6.8
2024-03-04T02:38:17.237Z,6.8
2024-03-04T02:39:17.385Z,6.8
2024-03-04T02:40:17.678Z,6.8
2024-03-04T02:41:17.907Z,6.8
2024-03-04T02:42:18.082Z,6.8
2024-03-04T02:43:18.466Z,6.8
2024-03-04T02:44:18.869Z,6.8
2024-03-04T02:45:19.062Z,6.8
2024-03-04T02:46:19.354Z,6.8
2024-03-04T02:47:19.577Z,6.8
2024-03-04T02:48:19.756Z,6.8
2024-03-04T02:49:19.992Z,6.8
2024-03-04T02:50:20.224Z,6.8
2024-03-04T02:51:20.384Z,6.8
2024-03-04T02:52:20.646Z,6.8
2024-03-04T02:53:20.952Z,6.8
2024-03-04T02:54:21.119Z,6.8
2024-03-04T02:55:21.342Z,6.8
2024-03-04T02:56:21.566Z,6.8
2024-03-04T02:57:21.717Z,6.8
2024-03-04T02:58:21.963Z,6.8
2024-03-04T02:59:22.171Z,6.8
2024-03-04T03:00:22.349Z,6.8
2024-03-04T03:01:22.671Z,6.8
2024-03-04T03:02:23.013Z,6.8
2024-03-04T03:03:23.151Z,6.8
2024-03-04T03:04:23.364Z,6.8
2024-03-04T03:05:23.684Z,6.8
2024-03-04T03:06:23.815Z,6.8
2024-03-04T03:07:24.073Z,6.8
2024-03-04T03:08:24.324Z,6.8
2024-03-04T03:09:24.486Z,6.8
2024-03-04T03:10:24.820Z,6.8
2024-03-04T03:11:25.485Z,6.8
2024-03-04T03:12:25.699Z,6.8
2024-03-04T03:13:25.869Z,6.8
2024-03-04T03:14:26.101Z,6.8
2024-03-04T03:15:26.252Z,6.8
2024-03-04T03:16:26.794Z,6.8
2024-03-04T03:17:27.060Z,6.8
2024-03-04T03:18:27.471Z,6.8
2024-03-04T03:19:27.735Z,6.8
2024-03-04T03:20:28.053Z,6.8
2024-03-04T03:21:28.215Z,6.8
2024-03-04T03:22:28.442Z,6.8
2024-03-04T03:23:28.679Z,6.8
2024-03-04T03:24:28.830Z,6.8
2024-03-04T03:25:29.116Z,6.8
2024-03-04T03:26:29.360Z,6.4
2024-03-04T03:27:29.524Z,6.4
2024-03-04T03:28:29.770Z,6.4
2024-03-04T03:29:30.093Z,6.4
2024-03-04T03:30:30.286Z,6.4
2024-03-04T03:31:30.503Z,6.4
2024-03-04T03:32:30.956Z,6.4
2024-03-04T03:33:31.190Z,6.4
2024-03-04T03:34:31.501Z,6.4
2024-03-04T03:35:31.745Z,6.4
2024-03-04T03:36:31.909Z,6.4
2024-03-04T03:37:32.229Z,6.4
2024-03-04T03:38:32.503Z,6.4
2024-03-04T03:39:32.659Z,6.4
2024-03-04T03:40:32.902Z,6.4
2024-03-04T03:41:33.185Z,6.4
2024-03-04T03:42:34.381Z,6.4
2024-03-04T03:43:35.122Z,6.4
2024-03-04T03:44:35.371Z,6.4
2024-03-04T03:45:38.793Z,6.4
2024-03-04T03:46:42.577Z,6.3
2024-03-04T03:47:42.920Z,6.3
2024-03-04T03:48:43.176Z,6.3
2024-03-04T03:49:43.398Z,6.3
2024-03-04T03:50:43.678Z,6.3
2024-03-04T03:51:43.828Z,6.3
2024-03-04T03:52:44.025Z,6.3
2024-03-04T03:53:44.255Z,6.3
2024-03-04T03:54:44.447Z,6.3
2024-03-04T03:55:44.723Z,6.3
2024-03-04T03:56:45.056Z,6.3
2024-03-04T03:57:58.413Z,6.3
2024-03-04T03:58:59.263Z,6.2
2024-03-04T03:59:59.408Z,6.2
2024-03-04T04:00:59.643Z,6.2
2024-03-04T04:02:00.272Z,6.2
2024-03-04T04:03:00.928Z,6.2
2024-03-04T04:04:01.290Z,6.2
2024-03-04T04:05:01.610Z,6.2
2024-03-04T04:06:01.899Z,6.2
2024-03-04T04:07:02.179Z,6.2
2024-03-04T04:08:02.368Z,6.2
2024-03-04T04:09:02.621Z,6.2
2024-03-04T04:10:02.837Z,6.2
2024-03-04T04:11:03.085Z,6.2
2024-03-04T04:12:03.267Z,6.2
2024-03-04T04:13:03.489Z,6.2
2024-03-04T04:14:03.718Z,6.2
2024-03-04T04:15:03.896Z,6.2
2024-03-04T04:16:04.104Z,6.2
2024-03-04T04:17:04.348Z,6.2
2024-03-04T04:18:04.580Z,6.2
2024-03-04T04:19:04.827Z,6.2
2024-03-04T04:20:04.997Z,6.2
2024-03-04T04:21:05.154Z,6.2
2024-03-04T04:22:05.498Z,6.2
2024-03-04T04:23:05.777Z,6.2
2024-03-04T04:24:05.972Z,6.2
2024-03-04T04:25:06.274Z,6.2
2024-03-04T04:26:06.674Z,6.2
2024-03-04T04:27:06.843Z,6
2024-03-04T04:28:07.088Z,6
2024-03-04T04:29:07.297Z,6
2024-03-04T04:30:07.511Z,6
2024-03-04T04:31:07.787Z,6
2024-03-04T04:32:07.996Z,6
2024-03-04T04:33:08.300Z,6
2024-03-04T04:34:08.573Z,6
2024-03-04T04:35:08.750Z,6
2024-03-04T04:36:08.899Z,6
2024-03-04T04:37:09.157Z,6
2024-03-04T04:38:09.378Z,6
2024-03-04T04:39:09.581Z,6
2024-03-04T04:40:09.824Z,6
2024-03-04T04:41:10.206Z,6
2024-03-04T04:42:10.375Z,6
2024-03-04T04:43:10.577Z,6
2024-03-04T04:44:10.757Z,6
2024-03-04T04:45:10.910Z,6
2024-03-04T04:46:11.122Z,6
2024-03-04T04:47:11.375Z,6
2024-03-04T04:48:11.648Z,6
2024-03-04T04:49:12.038Z,6
2024-03-04T04:50:12.228Z,6
2024-03-04T04:51:12.392Z,6
2024-03-04T04:52:12.603Z,6
2024-03-04T04:53:12.818Z,6
2024-03-04T04:54:13.290Z,6
2024-03-04T04:55:18.711Z,6
2024-03-04T04:56:19.811Z,5.9
2024-03-04T04:57:19.959Z,5.9
2024-03-04T04:58:20.233Z,5.9
2024-03-04T04:59:20.604Z,5.9
2024-03-04T05:00:20.795Z,5.9
2024-03-04T05:01:21.182Z,5.9
2024-03-04T05:02:21.438Z,5.9
2024-03-04T05:03:48.230Z,5.9
2024-03-04T05:05:23.146Z,5.9
2024-03-04T05:06:23.390Z,5.9
2024-03-04T05:07:23.589Z,5.9
2024-03-04T05:08:23.908Z,5.9
2024-03-04T05:09:24.066Z,5.9
2024-03-04T05:10:24.255Z,5.9
2024-03-04T05:11:24.573Z,5.9
2024-03-04T05:12:24.781Z,5.9
2024-03-04T05:13:25.008Z,5.9
2024-03-04T05:14:25.222Z,5.9
2024-03-04T05:15:25.417Z,5.9
2024-03-04T05:16:25.712Z,5.9
2024-03-04T05:17:26.089Z,5.9
2024-03-04T05:18:26.368Z,5.9
2024-03-04T05:19:26.635Z,5.9
2024-03-04T05:20:27.032Z,5.9
2024-03-04T05:21:27.202Z,5.9
2024-03-04T05:22:27.487Z,5.9
2024-03-04T05:23:27.743Z,5.9
2024-03-04T05:24:27.898Z,5.9
2024-03-04T05:25:28.152Z,5.9
2024-03-04T05:26:28.416Z,5.8
2024-03-04T05:27:31.193Z,5.8
2024-03-04T05:28:31.630Z,5.8
2024-03-04T05:29:31.864Z,5.8
2024-03-04T05:30:32.070Z,5.8
2024-03-04T05:31:32.469Z,5.8
2024-03-04T05:32:32.835Z,5.8
2024-03-04T05:33:33.021Z,5.8
2024-03-04T05:34:33.240Z,5.8
2024-03-04T05:35:33.466Z,5.8
2024-03-04T05:36:33.667Z,5.8
2024-03-04T05:37:33.979Z,5.8
2024-03-04T05:38:34.340Z,5.8
2024-03-04T05:39:34.500Z,5.8
2024-03-04T05:40:34.897Z,5.8
2024-03-04T05:41:35.343Z,5.8
2024-03-04T05:42:35.655Z,5.8
2024-03-04T05:43:36.104Z,5.8
2024-03-04T05:44:36.493Z,5.8
2024-03-04T05:45:36.688Z,5.8
2024-03-04T05:46:36.945Z,5.8
2024-03-04T05:47:37.395Z,5.8
2024-03-04T05:48:37.624Z,5.8
2024-03-04T05:49:37.960Z,5.8
2024-03-04T05:50:38.291Z,5.8
2024-03-04T05:51:38.456Z,5.8
2024-03-04T05:52:38.693Z,5.8
2024-03-04T05:53:39.068Z,5.8
2024-03-04T05:54:39.216Z,5.8
2024-03-04T05:55:39.450Z,5.8
2024-03-04T05:56:39.822Z,5.8
2024-03-04T05:57:40.058Z,5.8
2024-03-04T05:58:40.364Z,5.8
2024-03-04T05:59:40.777Z,5.8
2024-03-04T06:00:40.981Z,5.8
2024-03-04T06:01:41.594Z,5.8
2024-03-04T06:02:42.069Z,5.8
2024-03-04T06:03:42.220Z,5.8
2024-03-04T06:04:42.611Z,5.8
2024-03-04T06:05:42.971Z,5.8
2024-03-04T06:06:43.178Z,5.8
2024-03-04T06:07:43.457Z,5.8
2024-03-04T06:08:43.734Z,5.8
2024-03-04T06:09:44.014Z,5.8
2024-03-04T06:10:44.371Z,5.8
2024-03-04T06:11:44.785Z,5.8
2024-03-04T06:12:44.938Z,5.8
2024-03-04T06:13:45.176Z,5.8
2024-03-04T06:14:45.432Z,5.8
2024-03-04T06:15:45.604Z,5.8
2024-03-04T06:16:45.898Z,5.8
2024-03-04T06:17:46.183Z,5.8
2024-03-04T06:18:46.422Z,5.8
2024-03-04T06:19:46.697Z,5.8
2024-03-04T06:20:46.916Z,5.8
2024-03-04T06:22:01.045Z,5.8
2024-03-04T06:23:13.000Z,5.8
2024-03-04T06:24:13.223Z,5.8
2024-03-04T06:25:13.511Z,5.8
2024-03-04T06:26:13.781Z,5.8
2024-03-04T06:27:14.076Z,5.8
2024-03-04T06:28:14.302Z,5.8
2024-03-04T06:29:14.523Z,5.8
2024-03-04T06:30:14.923Z,5.8
2024-03-04T06:31:15.150Z,5.8
2024-03-04T06:32:15.356Z,5.8
2024-03-04T06:33:15.531Z,5.8
2024-03-04T06:34:24.378Z,5.8
2024-03-04T06:35:25.281Z,5.8
2024-03-04T06:36:25.552Z,5.8
2024-03-04T06:37:25.822Z,5.8
2024-03-04T06:38:30.496Z,5.8
2024-03-04T06:39:30.856Z,5.8
2024-03-04T06:40:31.158Z,5.8
2024-03-04T06:41:31.387Z,5.8
2024-03-04T06:42:31.571Z,5.8
2024-03-04T06:43:31.778Z,5.8
2024-03-04T06:44:31.974Z,5.8
2024-03-04T06:45:32.161Z,5.8
2024-03-04T06:46:32.395Z,5.8
2024-03-04T06:47:32.684Z,5.8
2024-03-04T06:48:32.883Z,5.8
2024-03-04T06:49:33.164Z,5.8
2024-03-04T06:50:38.105Z,5.8
2024-03-04T06:51:40.314Z,5.7
2024-03-04T06:52:40.802Z,5.7
2024-03-04T06:53:41.215Z,5.7
2024-03-04T06:54:41.384Z,5.7
2024-03-04T06:55:41.639Z,5.7
2024-03-04T06:56:41.844Z,5.7
2024-03-04T06:57:42.013Z,5.7
2024-03-04T06:58:42.230Z,5.7
2024-03-04T06:59:42.709Z,5.7
2024-03-04T07:00:43.043Z,5.7
2024-03-04T07:01:43.462Z,5.7
2024-03-04T07:02:43.760Z,5.7
2024-03-04T07:03:43.953Z,5.7
2024-03-04T07:04:44.555Z,5.7
2024-03-04T07:05:44.910Z,5.7
2024-03-04T07:06:45.081Z,5.7
2024-03-04T07:07:45.384Z,5.7
2024-03-04T07:08:45.667Z,5.7
2024-03-04T07:09:45.856Z,5.7
2024-03-04T07:10:46.377Z,5.7
2024-03-04T07:11:46.759Z,5.7
2024-03-04T07:12:46.994Z,5.7
2024-03-04T07:13:47.494Z,5.7
2024-03-04T07:14:47.751Z,5.7
2024-03-04T07:15:47.983Z,5.7
2024-03-04T07:16:48.198Z,5.7
2024-03-04T07:17:48.466Z,5.7
2024-03-04T07:18:48.657Z,5.7
2024-03-04T07:19:48.907Z,5.7
2024-03-04T07:20:49.111Z,5.7
2024-03-04T07:21:49.315Z,5.7
2024-03-04T07:22:49.568Z,5.7
2024-03-04T07:23:49.929Z,5.7
2024-03-04T07:24:50.113Z,5.7
2024-03-04T07:25:50.391Z,5.7
2024-03-04T07:26:50.614Z,5.8
2024-03-04T07:27:50.759Z,5.8
2024-03-04T07:28:51.008Z,5.8
2024-03-04T07:30:02.777Z,5.8
2024-03-04T07:31:04.339Z,5.8
2024-03-04T07:32:04.551Z,5.8
2024-03-04T07:33:04.777Z,5.8
2024-03-04T07:34:05.122Z,5.8
2024-03-04T07:35:05.324Z,5.8
2024-03-04T07:36:05.512Z,5.8
2024-03-04T07:37:05.815Z,5.8
2024-03-04T07:38:06.069Z,5.8
2024-03-04T07:39:06.215Z,5.8
2024-03-04T07:40:06.424Z,5.8
2024-03-04T07:41:06.653Z,5.8
2024-03-04T07:42:06.806Z,5.8
2024-03-04T07:43:07.043Z,5.8
2024-03-04T07:44:07.317Z,5.8
2024-03-04T07:45:07.641Z,5.8
2024-03-04T07:46:08.059Z,5.8
2024-03-04T07:47:08.416Z,5.8
2024-03-04T07:48:08.713Z,5.8
2024-03-04T07:49:08.984Z,5.8
2024-03-04T07:50:09.183Z,5.8
2024-03-04T07:51:09.346Z,5.8
2024-03-04T07:52:09.579Z,5.8
2024-03-04T07:53:09.783Z,5.8
2024-03-04T07:54:09.962Z,5.8
2024-03-04T07:55:10.222Z,5.8
2024-03-04T07:56:10.474Z,5.8
2024-03-04T07:57:23.136Z,5.8
2024-03-04T07:58:25.972Z,5.9
2024-03-04T07:59:26.198Z,5.9
2024-03-04T08:00:26.385Z,5.9
2024-03-04T08:01:26.705Z,5.9
2024-03-04T08:02:26.968Z,5.9
2024-03-04T08:03:27.120Z,5.9
2024-03-04T08:04:27.338Z,5.9
2024-03-04T08:05:27.568Z,5.9
2024-03-04T08:06:27.730Z,5.9
2024-03-04T08:07:27.950Z,5.9
2024-03-04T08:08:28.131Z,5.9
2024-03-04T08:09:28.300Z,5.9
2024-03-04T08:10:28.612Z,5.9
2024-03-04T08:11:29.022Z,5.9
2024-03-04T08:12:29.320Z,5.9
2024-03-04T08:13:30.161Z,5.9
2024-03-04T08:14:30.539Z,5.9
2024-03-04T08:15:30.706Z,5.9
2024-03-04T08:16:30.916Z,5.9
2024-03-04T08:17:33.815Z,5.9
2024-03-04T08:18:34.970Z,5.9
2024-03-04T08:19:35.335Z,5.9
2024-03-04T08:20:35.574Z,5.9
2024-03-04T08:21:35.749Z,5.9
2024-03-04T08:22:35.964Z,5.9
2024-03-04T08:23:36.172Z,5.9
2024-03-04T08:24:36.328Z,5.9
2024-03-04T08:25:36.567Z,5.9
2024-03-04T08:26:36.781Z,6
2024-03-04T08:27:36.952Z,6
2024-03-04T08:28:37.137Z,6
2024-03-04T08:29:37.372Z,6
2024-03-04T08:30:37.548Z,6
2024-03-04T08:31:37.805Z,6
2024-03-04T08:32:38.163Z,6
2024-03-04T08:33:38.399Z,6
2024-03-04T08:34:38.666Z,6
2024-03-04T08:35:38.917Z,6
2024-03-04T08:36:39.143Z,6
2024-03-04T08:37:39.830Z,6
2024-03-04T08:38:40.771Z,6
2024-03-04T08:39:40.923Z,6
2024-03-04T08:40:41.113Z,6
2024-03-04T08:41:41.316Z,6
2024-03-04T08:42:41.460Z,6
2024-03-04T08:43:41.814Z,6
2024-03-04T08:44:42.172Z,6
2024-03-04T08:45:42.360Z,6
2024-03-04T08:46:42.732Z,6
2024-03-04T08:47:43.245Z,6
2024-03-04T08:48:43.537Z,6
2024-03-04T08:49:43.897Z,6
2024-03-04T08:50:44.227Z,6
2024-03-04T08:51:44.388Z,6
2024-03-04T08:52:44.782Z,6
2024-03-04T08:53:44.996Z,6
2024-03-04T08:54:45.157Z,6
2024-03-04T08:55:45.502Z,6
2024-03-04T08:56:45.928Z,6
2024-03-04T08:57:46.127Z,6
2024-03-04T08:58:46.470Z,6
2024-03-04T08:59:46.708Z,6
2024-03-04T09:00:47.012Z,6
2024-03-04T09:01:47.324Z,6
2024-03-04T09:02:47.515Z,6
2024-03-04T09:03:47.657Z,6
2024-03-04T09:04:47.958Z,6
2024-03-04T09:05:48.257Z,6
2024-03-04T09:06:48.528Z,6
2024-03-04T09:07:48.798Z,6
2024-03-04T09:08:49.045Z,6
2024-03-04T09:09:49.202Z,6
2024-03-04T09:10:49.798Z,6
2024-03-04T09:11:50.355Z,6
2024-03-04T09:12:50.714Z,6
2024-03-04T09:13:50.918Z,6
2024-03-04T09:14:51.209Z,6
2024-03-04T09:15:51.407Z,6
2024-03-04T09:16:51.643Z,6
2024-03-04T09:17:51.973Z,6
2024-03-04T09:18:52.231Z,6
2024-03-04T09:19:52.545Z,6
2024-03-04T09:20:52.857Z,6
2024-03-04T09:21:53.001Z,6
2024-03-04T09:22:53.210Z,6
2024-03-04T09:23:53.374Z,6
2024-03-04T09:24:53.518Z,6
2024-03-04T09:25:53.821Z,6
2024-03-04T09:26:54.064Z,6.5
2024-03-04T09:27:54.246Z,6.5
2024-03-04T09:28:54.556Z,6.5
2024-03-04T09:29:54.857Z,6.5
2024-03-04T09:30:55.042Z,6.5
2024-03-04T09:31:55.334Z,6.5
2024-03-04T09:32:55.749Z,6.5
2024-03-04T09:33:56.021Z,6.5
2024-03-04T09:34:56.164Z,6.5
2024-03-04T09:35:56.323Z,6.5
2024-03-04T09:36:56.502Z,6.5
2024-03-04T09:37:56.671Z,6.5
2024-03-04T09:38:56.831Z,6.5
2024-03-04T09:39:56.981Z,6.5
2024-03-04T09:40:57.283Z,6.5
2024-03-04T09:41:58.308Z,6.5
2024-03-04T09:42:58.644Z,6.5
2024-03-04T09:43:58.931Z,6.5
2024-03-04T09:44:59.092Z,6.5
2024-03-04T09:46:01.541Z,6.5
2024-03-04T09:47:02.091Z,6.5
2024-03-04T09:48:02.332Z,6.5
2024-03-04T09:49:02.602Z,6.5
2024-03-04T09:50:02.783Z,6.5
2024-03-04T09:51:02.939Z,6.5
2024-03-04T09:52:03.421Z,6.5
2024-03-04T09:53:04.021Z,6.5
2024-03-04T09:54:04.176Z,6.5
2024-03-04T09:55:04.469Z,6.5
2024-03-04T09:56:04.664Z,6.5
2024-03-04T09:57:04.843Z,6.5
2024-03-04T09:58:05.080Z,6.5
2024-03-04T09:59:05.976Z,6.5
2024-03-04T10:00:07.163Z,6.5
2024-03-04T10:01:07.594Z,6.5
2024-03-04T10:02:08.265Z,6.5
2024-03-04T10:03:08.557Z,6.5
2024-03-04T10:04:08.926Z,6.5
2024-03-04T10:05:09.165Z,6.5
2024-03-04T10:06:09.325Z,6.5
2024-03-04T10:07:09.540Z,6.5
2024-03-04T10:08:09.797Z,6.5
2024-03-04T10:09:10.021Z,6.5
2024-03-04T10:10:10.220Z,6.5
2024-03-04T10:11:10.493Z,6.5
2024-03-04T10:12:10.725Z,6.5
2024-03-04T10:13:10.953Z,6.5
2024-03-04T10:14:11.480Z,6.5
2024-03-04T10:15:11.642Z,6.5
2024-03-04T10:16:11.912Z,6.5
2024-03-04T10:17:12.124Z,6.5
2024-03-04T10:18:12.738Z,6.5
2024-03-04T10:19:13.505Z,6.5
2024-03-04T10:20:13.852Z,6.5
2024-03-04T10:21:14.014Z,6.5
2024-03-04T10:22:14.304Z,6.5
2024-03-04T10:23:14.800Z,6.5
2024-03-04T10:24:14.941Z,6.5
2024-03-04T10:25:15.419Z,6.5
2024-03-04T10:26:15.723Z,6.5
2024-03-04T10:27:15.888Z,7.3
2024-03-04T10:28:16.088Z,7.3
2024-03-04T10:29:16.269Z,7.3
2024-03-04T10:30:16.479Z,7.3
2024-03-04T10:31:16.754Z,7.3
2024-03-04T10:32:17.010Z,7.3
2024-03-04T10:33:17.361Z,7.3
2024-03-04T10:34:17.695Z,7.3
2024-03-04T10:35:17.977Z,7.3
2024-03-04T10:36:18.776Z,7.3
2024-03-04T10:37:19.507Z,7.3
2024-03-04T10:38:19.675Z,7.3
2024-03-04T10:39:19.864Z,7.3
2024-03-04T10:40:20.233Z,7.3
2024-03-04T10:41:20.468Z,7.3
2024-03-04T10:42:20.626Z,7.3
2024-03-04T10:43:20.836Z,7.3
2024-03-04T10:44:21.073Z,7.3
2024-03-04T10:45:21.222Z,7.3
2024-03-04T10:46:21.518Z,7.3
2024-03-04T10:47:22.501Z,7.3
2024-03-04T10:48:23.107Z,7.3
2024-03-04T10:49:23.293Z,7.3
2024-03-04T10:50:23.540Z,7.3
2024-03-04T10:51:23.704Z,7.3
2024-03-04T10:52:23.934Z,7.3
2024-03-04T10:53:24.133Z,7.3
2024-03-04T10:54:24.305Z,7.3
2024-03-04T10:55:24.602Z,7.3
2024-03-04T10:56:24.923Z,7.3
2024-03-04T10:57:25.126Z,7.3
2024-03-04T10:58:25.330Z,7.3
2024-03-04T10:59:25.541Z,7.3
2024-03-04T11:00:25.712Z,7.3
2024-03-04T11:01:25.975Z,8.3
2024-03-04T11:02:26.264Z,8.3
2024-03-04T11:03:26.447Z,8.3
2024-03-04T11:04:26.724Z,8.3
2024-03-04T11:05:27.055Z,8.3
2024-03-04T11:06:27.222Z,8.3
2024-03-04T11:07:27.440Z,8.3
2024-03-04T11:08:27.689Z,8.3
2024-03-04T11:09:27.849Z,8.3
2024-03-04T11:10:28.067Z,8.3
2024-03-04T11:11:28.335Z,8.3
2024-03-04T11:12:28.583Z,8.3
2024-03-04T11:13:28.808Z,8.3
2024-03-04T11:14:29.053Z,8.3
2024-03-04T11:15:29.227Z,8.3
2024-03-04T11:16:29.597Z,8.3
2024-03-04T11:17:30.492Z,8.3
2024-03-04T11:18:30.994Z,8.3
2024-03-04T11:19:31.642Z,8.3
2024-03-04T11:20:32.128Z,8.3
2024-03-04T11:21:32.564Z,8.3
2024-03-04T11:22:32.991Z,8.3
2024-03-04T11:23:33.482Z,8.3
2024-03-04T11:24:33.943Z,8.3
2024-03-04T11:25:34.289Z,8.3
2024-03-04T11:26:34.642Z,8.3
2024-03-04T11:27:35.054Z,8.3
2024-03-04T11:28:39.374Z,9.3
2024-03-04T11:29:43.351Z,9.3
2024-03-04T11:30:43.891Z,9.3
2024-03-04T11:31:44.246Z,9.3
2024-03-04T11:32:44.843Z,9.3
2024-03-04T11:33:45.145Z,9.3
2024-03-04T11:34:46.088Z,9.3
2024-03-04T11:35:46.467Z,9.3
2024-03-04T11:36:46.852Z,9.3
2024-03-04T11:37:47.234Z,9.3
2024-03-04T11:38:47.645Z,9.3
2024-03-04T11:39:48.061Z,9.3
2024-03-04T11:40:48.558Z,9.3
2024-03-04T11:41:48.980Z,9.3
2024-03-04T11:42:50.078Z,9.3
2024-03-04T11:43:50.635Z,9.3
2024-03-04T11:44:50.930Z,9.3
2024-03-04T11:45:51.086Z,9.3
2024-03-04T11:46:51.376Z,9.3
2024-03-04T11:47:51.722Z,10.3
2024-03-04T11:48:52.089Z,10.3
2024-03-04T11:49:52.497Z,10.3
2024-03-04T11:50:52.737Z,10.3
2024-03-04T11:51:52.903Z,10.3
2024-03-04T11:52:53.229Z,10.3
2024-03-04T11:53:53.473Z,10.3
2024-03-04T11:54:53.643Z,10.3
2024-03-04T11:55:53.942Z,10.3
2024-03-04T11:56:54.372Z,10.3
2024-03-04T11:57:54.594Z,10.3
2024-03-04T11:58:54.807Z,10.3
2024-03-04T11:59:54.972Z,10.3
2024-03-04T12:01:08.614Z,10.3
2024-03-04T12:02:22.649Z,11.2
2024-03-04T12:03:23.095Z,11.3
2024-03-04T12:04:23.337Z,11.3
2024-03-04T12:05:23.725Z,11.3
2024-03-04T12:06:24.133Z,11.3
2024-03-04T12:07:25.219Z,11.3
2024-03-04T12:08:52.476Z,11.3
2024-03-04T12:10:38.811Z,11.9
2024-03-04T12:11:39.221Z,11.9
2024-03-04T12:12:41.502Z,11.9
2024-03-04T12:13:41.863Z,11.9
2024-03-04T12:14:42.121Z,11.9
2024-03-04T12:15:42.539Z,12.3
2024-03-04T12:16:42.843Z,12.3
2024-03-04T12:17:43.268Z,12.3
2024-03-04T12:18:43.622Z,12.3
2024-03-04T12:19:44.034Z,12.3
2024-03-04T12:20:44.269Z,12.3
2024-03-04T12:21:44.468Z,12.3
2024-03-04T12:22:44.828Z,12.3
2024-03-04T12:23:45.247Z,12.3
2024-03-04T12:24:45.432Z,12.3
2024-03-04T12:25:45.901Z,12.3
2024-03-04T12:26:46.522Z,12.3
2024-03-04T12:27:46.824Z,12.3
2024-03-04T12:28:47.087Z,13.3
2024-03-04T12:29:47.501Z,13.3
2024-03-04T12:30:47.892Z,13.3
2024-03-04T12:31:48.402Z,13.3
2024-03-04T12:32:48.852Z,13.3
2024-03-04T12:33:49.098Z,13.3
2024-03-04T12:34:49.453Z,13.3
2024-03-04T12:35:49.872Z,13.3
2024-03-04T12:36:50.018Z,13.3
2024-03-04T12:37:50.434Z,13.3
2024-03-04T12:38:50.580Z,13.3
2024-03-04T12:39:50.727Z,13.3
2024-03-04T12:40:50.987Z,13.3
2024-03-04T12:41:51.257Z,14.3
2024-03-04T12:42:51.453Z,14.3
2024-03-04T12:43:51.687Z,14.3
2024-03-04T12:44:51.991Z,14.3
2024-03-04T12:45:52.164Z,14.3
2024-03-04T12:46:52.402Z,14.3
2024-03-04T12:47:52.789Z,14.3
2024-03-04T12:48:53.090Z,14.3
2024-03-04T12:49:53.508Z,14.3
2024-03-04T12:50:53.878Z,14.3
2024-03-04T12:51:54.114Z,14.3
2024-03-04T12:52:54.324Z,14.3
2024-03-04T12:53:54.593Z,14.3
2024-03-04T12:54:54.798Z,14.3
2024-03-04T12:55:55.139Z,14.3
2024-03-04T12:56:55.739Z,15.3
2024-03-04T12:57:55.940Z,15.3
2024-03-04T12:58:56.155Z,15.3
2024-03-04T12:59:56.447Z,15.3
2024-03-04T13:00:56.840Z,15.3
2024-03-04T13:01:57.379Z,15.3
2024-03-04T13:02:57.757Z,15.3
2024-03-04T13:03:58.083Z,15.3
2024-03-04T13:04:58.312Z,15.3
2024-03-04T13:05:58.550Z,15.3
2024-03-04T13:06:58.745Z,15.3
2024-03-04T13:07:59.206Z,15.3
2024-03-04T13:08:59.642Z,15.3
2024-03-04T13:09:59.913Z,15.3
2024-03-04T13:11:00.566Z,15.3
2024-03-04T13:12:01.255Z,15.3
2024-03-04T13:13:01.508Z,15.3
2024-03-04T13:14:01.718Z,15.3
2024-03-04T13:15:01.968Z,15.3
2024-03-04T13:16:02.413Z,15.3
2024-03-04T13:17:03.014Z,15.3
2024-03-04T13:18:03.273Z,15.3
2024-03-04T13:19:03.709Z,15.3
2024-03-04T13:20:03.957Z,15.3
2024-03-04T13:21:04.289Z,15.3
2024-03-04T13:22:04.623Z,15.3
2024-03-04T13:23:05.225Z,15.3
2024-03-04T13:24:05.483Z,15.3
2024-03-04T13:25:05.682Z,14.3
2024-03-04T13:26:05.997Z,14.3
2024-03-04T13:27:06.196Z,14.3
2024-03-04T13:28:06.461Z,14.3
2024-03-04T13:29:06.699Z,14.3
2024-03-04T13:30:06.870Z,14.3
2024-03-04T13:31:07.119Z,14.3
2024-03-04T13:32:07.511Z,14.3
2024-03-04T13:33:07.766Z,14.3
2024-03-04T13:34:08.195Z,14.3
2024-03-04T13:35:08.531Z,14.3
2024-03-04T13:36:08.718Z,14.3
2024-03-04T13:37:09.026Z,14.3
2024-03-04T13:38:09.520Z,14.3
2024-03-04T13:39:09.678Z,14.3
2024-03-04T13:40:10.111Z,13.3
2024-03-04T13:41:10.863Z,13.3
2024-03-04T13:42:11.109Z,13.3
2024-03-04T13:43:20.449Z,13.3
2024-03-04T13:44:21.296Z,13.2
2024-03-04T13:45:21.690Z,13.2
2024-03-04T13:46:21.896Z,13.2
2024-03-04T13:47:22.214Z,13.2
2024-03-04T13:48:23.193Z,13.2
2024-03-04T13:49:23.835Z,13.2
2024-03-04T13:50:24.095Z,13.2
2024-03-04T13:51:24.386Z,13.2
2024-03-04T13:52:24.750Z,13.2
2024-03-04T13:53:25.013Z,13.2
2024-03-04T13:54:25.187Z,13.2
2024-03-04T13:55:25.656Z,13.2
2024-03-04T13:56:26.018Z,13.2
2024-03-04T13:57:26.178Z,13.2
2024-03-04T13:58:26.607Z,13.2